Terminal Aerodrome Forecast
Issued by NWS Charleston, SC

Home | Current Version | Previous Version | Text Only | Print | Product List | Glossary On
Versions: 1 2 3 4 5 6 7 8 9 10 11 12 13 14 15 16 17 18 19 20 21 22 23 24 25 26 27 28
000
FTUS42 KCHS 072049 AAB
TAFSAV
TAF AMD
KSAV 072049Z 0721/0818 VRB03KT P6SM BKN018
     FM072200 VRB03KT P6SM SCT020
     FM080800 28005KT P6SM SCT007=

USA.gov is the U.S. government's official web portal to all federal, state and local government web resources and services.